sensor_id;sensor_type;location;lat;lon;timestamp;temperature;humidity
18797;DHT22;9526;52.612;13.300;2022-08-21T00:01:52;19.70;99.90
18797;DHT22;9526;52.612;13.300;2022-08-21T00:04:17;19.70;99.90
18797;DHT22;9526;52.612;13.300;2022-08-21T00:06:43;19.60;99.90
18797;DHT22;9526;52.612;13.300;2022-08-21T00:09:08;19.60;99.90
18797;DHT22;9526;52.612;13.300;2022-08-21T00:11:33;19.50;99.90
18797;DHT22;9526;52.612;13.300;2022-08-21T00:13:58;19.50;99.90
18797;DHT22;9526;52.612;13.300;2022-08-21T00:16:21;19.50;99.90
18797;DHT22;9526;52.612;13.300;2022-08-21T00:18:45;19.50;99.90
18797;DHT22;9526;52.612;13.300;2022-08-21T00:21:11;19.40;99.90
18797;DHT22;9526;52.612;13.300;2022-08-21T00:23:35;19.40;99.90
18797;DHT22;9526;52.612;13.300;2022-08-21T00:26:00;19.40;99.90
18797;DHT22;9526;52.612;13.300;2022-08-21T00:28:24;19.40;99.90
18797;DHT22;9526;52.612;13.300;2022-08-21T00:30:47;19.40;99.90
18797;DHT22;9526;52.612;13.300;2022-08-21T00:33:12;19.30;99.90
18797;DHT22;9526;52.612;13.300;2022-08-21T00:35:38;19.40;99.90
18797;DHT22;9526;52.612;13.300;2022-08-21T00:38:04;19.30;99.90
18797;DHT22;9526;52.612;13.300;2022-08-21T00:40:34;19.30;99.90
18797;DHT22;9526;52.612;13.300;2022-08-21T00:43:02;19.30;99.90
18797;DHT22;9526;52.612;13.300;2022-08-21T00:45:27;19.20;99.90
18797;DHT22;9526;52.612;13.300;2022-08-21T00:47:52;19.20;99.90
18797;DHT22;9526;52.612;13.300;2022-08-21T00:50:17;19.20;99.90
18797;DHT22;9526;52.612;13.300;2022-08-21T00:52:43;19.20;99.90
18797;DHT22;9526;52.612;13.300;2022-08-21T00:55:10;19.20;99.90
18797;DHT22;9526;52.612;13.300;2022-08-21T00:57:37;19.10;99.90
18797;DHT22;9526;52.612;13.300;2022-08-21T01:00:11;19.20;99.90
18797;DHT22;9526;52.612;13.300;2022-08-21T01:02:38;19.10;99.90
18797;DHT22;9526;52.612;13.300;2022-08-21T01:05:03;19.10;99.90
18797;DHT22;9526;52.612;13.300;2022-08-21T01:07:27;19.10;99.90
18797;DHT22;9526;52.612;13.300;2022-08-21T01:09:52;19.10;99.90
18797;DHT22;9526;52.612;13.300;2022-08-21T01:12:15;19.00;99.90
18797;DHT22;9526;52.612;13.300;2022-08-21T01:14:40;19.00;99.90
18797;DHT22;9526;52.612;13.300;2022-08-21T01:17:07;19.00;99.90
18797;DHT22;9526;52.612;13.300;2022-08-21T01:19:32;19.00;99.90
18797;DHT22;9526;52.612;13.300;2022-08-21T01:21:58;19.00;99.90
18797;DHT22;9526;52.612;13.300;2022-08-21T01:24:22;19.00;99.90
18797;DHT22;9526;52.612;13.300;2022-08-21T01:26:47;18.90;99.90
18797;DHT22;9526;52.612;13.300;2022-08-21T01:29:15;18.90;99.90
18797;DHT22;9526;52.612;13.300;2022-08-21T01:31:53;18.90;99.90
18797;DHT22;9526;52.612;13.300;2022-08-21T01:34:17;18.80;99.90
18797;DHT22;9526;52.612;13.300;2022-08-21T01:36:41;18.80;99.90
18797;DHT22;9526;52.612;13.300;2022-08-21T01:39:06;18.80;99.90
18797;DHT22;9526;52.612;13.300;2022-08-21T01:41:30;18.80;99.90
18797;DHT22;9526;52.612;13.300;2022-08-21T01:43:53;18.70;99.90
18797;DHT22;9526;52.612;13.300;2022-08-21T01:46:17;18.70;99.90
18797;DHT22;9526;52.612;13.300;2022-08-21T01:48:41;18.70;99.90
18797;DHT22;9526;52.612;13.300;2022-08-21T01:51:06;18.70;99.90
18797;DHT22;9526;52.612;13.300;2022-08-21T01:53:29;18.60;99.90
18797;DHT22;9526;52.612;13.300;2022-08-21T01:55:56;18.60;99.90
18797;DHT22;9526;52.612;13.300;2022-08-21T01:58:19;18.60;99.90
18797;DHT22;9526;52.612;13.300;2022-08-21T02:00:43;18.50;99.90
18797;DHT22;9526;52.612;13.300;2022-08-21T02:03:14;18.50;99.90
18797;DHT22;9526;52.612;13.300;2022-08-21T02:05:56;18.50;99.90
18797;DHT22;9526;52.612;13.300;2022-08-21T02:08:20;18.50;99.90
18797;DHT22;9526;52.612;13.300;2022-08-21T02:10:44;18.40;99.90
18797;DHT22;9526;52.612;13.300;2022-08-21T02:13:11;18.40;99.90
18797;DHT22;9526;52.612;13.300;2022-08-21T02:15:35;18.40;99.90
18797;DHT22;9526;52.612;13.300;2022-08-21T02:18:00;18.30;99.90
18797;DHT22;9526;52.612;13.300;2022-08-21T02:20:27;18.30;99.90
18797;DHT22;9526;52.612;13.300;2022-08-21T02:22:54;18.30;99.90
18797;DHT22;9526;52.612;13.300;2022-08-21T02:25:18;18.20;99.90
18797;DHT22;9526;52.612;13.300;2022-08-21T02:27:44;18.20;99.90
18797;DHT22;9526;52.612;13.300;2022-08-21T02:30:12;18.20;99.90
18797;DHT22;9526;52.612;13.300;2022-08-21T02:32:37;18.20;99.90
18797;DHT22;9526;52.612;13.300;2022-08-21T02:35:01;18.20;99.90
18797;DHT22;9526;52.612;13.300;2022-08-21T02:37:25;18.10;99.90
18797;DHT22;9526;52.612;13.300;2022-08-21T02:39:49;18.10;99.90
18797;DHT22;9526;52.612;13.300;2022-08-21T02:42:13;18.10;99.90
18797;DHT22;9526;52.612;13.300;2022-08-21T02:44:36;18.10;99.90
18797;DHT22;9526;52.612;13.300;2022-08-21T02:47:02;18.00;99.90
18797;DHT22;9526;52.612;13.300;2022-08-21T02:49:25;18.00;99.90
18797;DHT22;9526;52.612;13.300;2022-08-21T02:51:49;18.00;99.90
18797;DHT22;9526;52.612;13.300;2022-08-21T02:54:13;18.00;99.90
18797;DHT22;9526;52.612;13.300;2022-08-21T02:56:36;18.00;99.90
18797;DHT22;9526;52.612;13.300;2022-08-21T02:59:00;17.90;99.90
18797;DHT22;9526;52.612;13.300;2022-08-21T03:01:24;17.90;99.90
18797;DHT22;9526;52.612;13.300;2022-08-21T03:03:50;17.90;99.90
18797;DHT22;9526;52.612;13.300;2022-08-21T03:06:15;17.80;99.90
18797;DHT22;9526;52.612;13.300;2022-08-21T03:08:41;17.80;99.90
18797;DHT22;9526;52.612;13.300;2022-08-21T03:11:07;17.80;99.90
18797;DHT22;9526;52.612;13.300;2022-08-21T03:13:33;17.80;99.90
18797;DHT22;9526;52.612;13.300;2022-08-21T03:15:56;17.70;99.90
18797;DHT22;9526;52.612;13.300;2022-08-21T03:18:21;17.70;99.90
18797;DHT22;9526;52.612;13.300;2022-08-21T03:20:47;17.70;99.90
18797;DHT22;9526;52.612;13.300;2022-08-21T03:23:11;17.70;99.90
18797;DHT22;9526;52.612;13.300;2022-08-21T03:25:40;17.60;99.90
18797;DHT22;9526;52.612;13.300;2022-08-21T03:28:08;17.60;99.90
18797;DHT22;9526;52.612;13.300;2022-08-21T03:30:34;17.60;99.90
18797;DHT22;9526;52.612;13.300;2022-08-21T03:32:58;17.60;99.90
18797;DHT22;9526;52.612;13.300;2022-08-21T03:35:23;17.60;99.90
18797;DHT22;9526;52.612;13.300;2022-08-21T03:37:48;17.50;99.90
18797;DHT22;9526;52.612;13.300;2022-08-21T03:40:13;17.50;99.90
18797;DHT22;9526;52.612;13.300;2022-08-21T03:42:39;17.50;99.90
18797;DHT22;9526;52.612;13.300;2022-08-21T03:45:03;17.50;99.90
18797;DHT22;9526;52.612;13.300;2022-08-21T03:47:28;17.50;99.90
18797;DHT22;9526;52.612;13.300;2022-08-21T03:49:52;17.40;99.90
18797;DHT22;9526;52.612;13.300;2022-08-21T03:52:16;17.40;99.90
18797;DHT22;9526;52.612;13.300;2022-08-21T03:54:41;17.40;99.90
18797;DHT22;9526;52.612;13.300;2022-08-21T03:57:05;17.40;99.90
18797;DHT22;9526;52.612;13.300;2022-08-21T03:59:29;17.40;99.90
18797;DHT22;9526;52.612;13.300;2022-08-21T04:01:53;17.30;99.90
18797;DHT22;9526;52.612;13.300;2022-08-21T04:04:18;17.30;99.90
18797;DHT22;9526;52.612;13.300;2022-08-21T04:06:42;17.20;99.90
18797;DHT22;9526;52.612;13.300;2022-08-21T04:09:05;17.10;99.90
18797;DHT22;9526;52.612;13.300;2022-08-21T04:11:31;17.10;99.90
18797;DHT22;9526;52.612;13.300;2022-08-21T04:13:55;17.00;99.90
18797;DHT22;9526;52.612;13.300;2022-08-21T04:16:18;17.10;99.90
18797;DHT22;9526;52.612;13.300;2022-08-21T04:18:42;17.00;99.90
18797;DHT22;9526;52.612;13.300;2022-08-21T04:21:07;17.00;99.90
18797;DHT22;9526;52.612;13.300;2022-08-21T04:23:34;17.00;99.90
18797;DHT22;9526;52.612;13.300;2022-08-21T04:25:58;17.00;99.90
18797;DHT22;9526;52.612;13.300;2022-08-21T04:28:24;17.00;99.90
18797;DHT22;9526;52.612;13.300;2022-08-21T04:30:51;17.00;99.90
18797;DHT22;9526;52.612;13.300;2022-08-21T04:33:15;17.00;99.90
18797;DHT22;9526;52.612;13.300;2022-08-21T04:35:38;17.00;99.90
18797;DHT22;9526;52.612;13.300;2022-08-21T04:38:04;17.00;99.90
18797;DHT22;9526;52.612;13.300;2022-08-21T04:40:28;17.00;99.90
18797;DHT22;9526;52.612;13.300;2022-08-21T04:42:54;17.00;99.90
18797;DHT22;9526;52.612;13.300;2022-08-21T04:45:24;17.00;99.90
18797;DHT22;9526;52.612;13.300;2022-08-21T04:47:50;17.00;99.90
18797;DHT22;9526;52.612;13.300;2022-08-21T04:50:15;16.90;99.90
18797;DHT22;9526;52.612;13.300;2022-08-21T04:52:57;16.90;99.90
18797;DHT22;9526;52.612;13.300;2022-08-21T04:55:22;17.00;99.90
18797;DHT22;9526;52.612;13.300;2022-08-21T04:57:47;16.90;99.90
18797;DHT22;9526;52.612;13.300;2022-08-21T05:00:16;17.00;99.90
18797;DHT22;9526;52.612;13.300;2022-08-21T05:02:42;17.00;99.90
18797;DHT22;9526;52.612;13.300;2022-08-21T05:05:07;17.00;99.90
18797;DHT22;9526;52.612;13.300;2022-08-21T05:07:31;17.00;99.90
18797;DHT22;9526;52.612;13.300;2022-08-21T05:10:04;17.00;99.90
18797;DHT22;9526;52.612;13.300;2022-08-21T05:12:31;17.00;99.90
18797;DHT22;9526;52.612;13.300;2022-08-21T05:14:56;17.10;99.90
18797;DHT22;9526;52.612;13.300;2022-08-21T05:17:20;17.10;99.90
18797;DHT22;9526;52.612;13.300;2022-08-21T05:19:46;17.10;99.90
18797;DHT22;9526;52.612;13.300;2022-08-21T05:22:10;17.10;99.90
18797;DHT22;9526;52.612;13.300;2022-08-21T05:24:33;17.10;99.90
18797;DHT22;9526;52.612;13.300;2022-08-21T05:26:57;17.20;99.90
18797;DHT22;9526;52.612;13.300;2022-08-21T05:29:25;17.20;99.90
18797;DHT22;9526;52.612;13.300;2022-08-21T05:31:50;17.20;99.90
18797;DHT22;9526;52.612;13.300;2022-08-21T05:34:15;17.20;99.90
18797;DHT22;9526;52.612;13.300;2022-08-21T05:36:43;17.30;99.90
18797;DHT22;9526;52.612;13.300;2022-08-21T05:39:07;17.30;99.90
18797;DHT22;9526;52.612;13.300;2022-08-21T05:41:31;17.40;99.90
18797;DHT22;9526;52.612;13.300;2022-08-21T05:43:55;17.40;99.90
18797;DHT22;9526;52.612;13.300;2022-08-21T05:46:19;17.40;99.90
18797;DHT22;9526;52.612;13.300;2022-08-21T05:48:43;17.50;99.90
18797;DHT22;9526;52.612;13.300;2022-08-21T05:51:08;17.60;99.90
18797;DHT22;9526;52.612;13.300;2022-08-21T05:53:36;17.60;99.90
18797;DHT22;9526;52.612;13.300;2022-08-21T05:56:00;17.60;99.90
18797;DHT22;9526;52.612;13.300;2022-08-21T05:58:26;17.60;99.90
18797;DHT22;9526;52.612;13.300;2022-08-21T06:00:50;17.70;99.90
18797;DHT22;9526;52.612;13.300;2022-08-21T06:03:16;17.80;99.90
18797;DHT22;9526;52.612;13.300;2022-08-21T06:05:41;17.70;99.90
18797;DHT22;9526;52.612;13.300;2022-08-21T06:08:05;17.80;99.90
18797;DHT22;9526;52.612;13.300;2022-08-21T06:10:30;17.80;99.90
18797;DHT22;9526;52.612;13.300;2022-08-21T06:12:54;17.90;99.90
18797;DHT22;9526;52.612;13.300;2022-08-21T06:15:18;17.90;99.90
18797;DHT22;9526;52.612;13.300;2022-08-21T06:17:42;17.90;99.90
18797;DHT22;9526;52.612;13.300;2022-08-21T06:20:07;17.90;99.90
18797;DHT22;9526;52.612;13.300;2022-08-21T06:22:31;17.90;99.90
18797;DHT22;9526;52.612;13.300;2022-08-21T06:24:55;18.00;99.90
18797;DHT22;9526;52.612;13.300;2022-08-21T06:27:20;18.00;99.90
18797;DHT22;9526;52.612;13.300;2022-08-21T06:29:47;18.20;99.90
18797;DHT22;9526;52.612;13.300;2022-08-21T06:32:11;18.10;99.90
18797;DHT22;9526;52.612;13.300;2022-08-21T06:34:37;18.10;99.90
18797;DHT22;9526;52.612;13.300;2022-08-21T06:37:02;18.30;99.90
18797;DHT22;9526;52.612;13.300;2022-08-21T06:39:26;18.30;99.90
18797;DHT22;9526;52.612;13.300;2022-08-21T06:41:53;18.30;99.90
18797;DHT22;9526;52.612;13.300;2022-08-21T06:44:24;18.30;99.90
18797;DHT22;9526;52.612;13.300;2022-08-21T06:46:47;18.40;99.90
18797;DHT22;9526;52.612;13.300;2022-08-21T06:49:11;18.50;99.90
18797;DHT22;9526;52.612;13.300;2022-08-21T06:51:42;18.60;99.90
18797;DHT22;9526;52.612;13.300;2022-08-21T06:54:06;18.70;99.90
18797;DHT22;9526;52.612;13.300;2022-08-21T06:56:30;18.70;99.90
18797;DHT22;9526;52.612;13.300;2022-08-21T06:58:55;18.80;99.90
18797;DHT22;9526;52.612;13.300;2022-08-21T07:01:23;18.90;99.90
18797;DHT22;9526;52.612;13.300;2022-08-21T07:03:48;18.90;99.90
18797;DHT22;9526;52.612;13.300;2022-08-21T07:06:13;19.00;99.90
18797;DHT22;9526;52.612;13.300;2022-08-21T07:08:37;19.10;99.90
18797;DHT22;9526;52.612;13.300;2022-08-21T07:11:03;19.00;99.90
18797;DHT22;9526;52.612;13.300;2022-08-21T07:13:30;19.10;99.90
18797;DHT22;9526;52.612;13.300;2022-08-21T07:15:54;19.30;99.90
18797;DHT22;9526;52.612;13.300;2022-08-21T07:18:26;19.40;99.90
18797;DHT22;9526;52.612;13.300;2022-08-21T07:20:50;19.40;99.90
18797;DHT22;9526;52.612;13.300;2022-08-21T07:23:21;19.50;99.90
18797;DHT22;9526;52.612;13.300;2022-08-21T07:25:46;19.60;99.90
18797;DHT22;9526;52.612;13.300;2022-08-21T07:28:09;19.60;99.90
18797;DHT22;9526;52.612;13.300;2022-08-21T07:30:33;19.80;99.90
18797;DHT22;9526;52.612;13.300;2022-08-21T07:32:57;19.90;99.90
18797;DHT22;9526;52.612;13.300;2022-08-21T07:35:23;20.00;99.90
18797;DHT22;9526;52.612;13.300;2022-08-21T07:37:47;20.10;99.90
18797;DHT22;9526;52.612;13.300;2022-08-21T07:40:11;20.00;99.90
18797;DHT22;9526;52.612;13.300;2022-08-21T07:42:39;20.10;99.90
18797;DHT22;9526;52.612;13.300;2022-08-21T07:45:05;20.20;99.90
18797;DHT22;9526;52.612;13.300;2022-08-21T07:47:29;20.30;99.90
18797;DHT22;9526;52.612;13.300;2022-08-21T07:50:05;20.40;99.90
18797;DHT22;9526;52.612;13.300;2022-08-21T07:52:30;20.30;99.90
18797;DHT22;9526;52.612;13.300;2022-08-21T07:54:54;20.40;99.90
18797;DHT22;9526;52.612;13.300;2022-08-21T07:57:18;20.60;99.90
18797;DHT22;9526;52.612;13.300;2022-08-21T07:59:42;20.60;99.90
18797;DHT22;9526;52.612;13.300;2022-08-21T08:02:06;20.60;99.90
18797;DHT22;9526;52.612;13.300;2022-08-21T08:04:30;20.70;99.90
18797;DHT22;9526;52.612;13.300;2022-08-21T08:06:53;20.90;99.90
18797;DHT22;9526;52.612;13.300;2022-08-21T08:09:18;20.90;99.90
18797;DHT22;9526;52.612;13.300;2022-08-21T08:11:43;20.90;99.90
18797;DHT22;9526;52.612;13.300;2022-08-21T08:14:06;20.80;99.90
18797;DHT22;9526;52.612;13.300;2022-08-21T08:16:30;20.70;99.90
18797;DHT22;9526;52.612;13.300;2022-08-21T08:18:54;20.70;99.90
18797;DHT22;9526;52.612;13.300;2022-08-21T08:21:18;20.70;99.90
18797;DHT22;9526;52.612;13.300;2022-08-21T08:23:42;20.90;99.90
18797;DHT22;9526;52.612;13.300;2022-08-21T08:26:08;20.80;99.90
18797;DHT22;9526;52.612;13.300;2022-08-21T08:28:33;20.90;99.90
18797;DHT22;9526;52.612;13.300;2022-08-21T08:30:57;20.90;99.90
18797;DHT22;9526;52.612;13.300;2022-08-21T08:33:22;20.90;99.90
18797;DHT22;9526;52.612;13.300;2022-08-21T08:35:47;20.90;99.90
18797;DHT22;9526;52.612;13.300;2022-08-21T08:38:12;20.90;99.90
18797;DHT22;9526;52.612;13.300;2022-08-21T08:40:45;21.00;99.90
18797;DHT22;9526;52.612;13.300;2022-08-21T08:43:17;21.00;99.90
18797;DHT22;9526;52.612;13.300;2022-08-21T08:45:45;21.00;99.90
18797;DHT22;9526;52.612;13.300;2022-08-21T08:48:13;20.90;99.90
18797;DHT22;9526;52.612;13.300;2022-08-21T08:50:42;21.10;99.90
18797;DHT22;9526;52.612;13.300;2022-08-21T08:53:13;21.10;99.90
18797;DHT22;9526;52.612;13.300;2022-08-21T08:55:43;21.30;99.90
18797;DHT22;9526;52.612;13.300;2022-08-21T08:58:19;21.30;99.90
18797;DHT22;9526;52.612;13.300;2022-08-21T09:00:47;21.30;99.90
18797;DHT22;9526;52.612;13.300;2022-08-21T09:03:13;21.40;99.90
18797;DHT22;9526;52.612;13.300;2022-08-21T09:05:44;21.40;99.90
18797;DHT22;9526;52.612;13.300;2022-08-21T09:08:28;21.60;99.90
18797;DHT22;9526;52.612;13.300;2022-08-21T09:11:03;21.60;99.90
18797;DHT22;9526;52.612;13.300;2022-08-21T09:13:36;21.80;99.90
18797;DHT22;9526;52.612;13.300;2022-08-21T09:16:15;21.90;99.90
18797;DHT22;9526;52.612;13.300;2022-08-21T09:18:51;22.00;99.90
18797;DHT22;9526;52.612;13.300;2022-08-21T09:21:28;22.10;99.90
18797;DHT22;9526;52.612;13.300;2022-08-21T09:24:02;22.00;99.90
18797;DHT22;9526;52.612;13.300;2022-08-21T09:26:47;22.10;99.90
18797;DHT22;9526;52.612;13.300;2022-08-21T09:29:17;22.10;99.90
18797;DHT22;9526;52.612;13.300;2022-08-21T09:31:44;22.10;99.90
18797;DHT22;9526;52.612;13.300;2022-08-21T09:34:09;22.30;99.90
18797;DHT22;9526;52.612;13.300;2022-08-21T09:36:38;22.40;99.90
18797;DHT22;9526;52.612;13.300;2022-08-21T09:39:04;22.40;99.90
18797;DHT22;9526;52.612;13.300;2022-08-21T09:41:32;22.50;99.90
18797;DHT22;9526;52.612;13.300;2022-08-21T09:43:57;22.70;99.90
18797;DHT22;9526;52.612;13.300;2022-08-21T09:46:24;22.90;99.90
18797;DHT22;9526;52.612;13.300;2022-08-21T09:48:51;22.90;99.90
18797;DHT22;9526;52.612;13.300;2022-08-21T09:51:21;23.00;99.90
18797;DHT22;9526;52.612;13.300;2022-08-21T09:53:49;23.00;99.90
18797;DHT22;9526;52.612;13.300;2022-08-21T09:56:33;23.00;99.90
18797;DHT22;9526;52.612;13.300;2022-08-21T09:59:24;22.90;99.90
18797;DHT22;9526;52.612;13.300;2022-08-21T10:01:53;23.10;99.90
18797;DHT22;9526;52.612;13.300;2022-08-21T10:04:21;23.10;99.90
18797;DHT22;9526;52.612;13.300;2022-08-21T10:06:48;23.20;99.90
18797;DHT22;9526;52.612;13.300;2022-08-21T10:09:17;23.30;99.90
18797;DHT22;9526;52.612;13.300;2022-08-21T10:11:48;23.60;99.90
18797;DHT22;9526;52.612;13.300;2022-08-21T10:14:24;23.80;99.90
18797;DHT22;9526;52.612;13.300;2022-08-21T10:17:10;23.80;99.90
18797;DHT22;9526;52.612;13.300;2022-08-21T10:19:43;23.80;99.90
18797;DHT22;9526;52.612;13.300;2022-08-21T10:22:20;23.70;99.90
18797;DHT22;9526;52.612;13.300;2022-08-21T10:24:57;24.00;99.90
18797;DHT22;9526;52.612;13.300;2022-08-21T10:27:33;23.80;99.90
18797;DHT22;9526;52.612;13.300;2022-08-21T10:30:05;24.00;99.90
18797;DHT22;9526;52.612;13.300;2022-08-21T10:35:35;24.30;99.90
18797;DHT22;9526;52.612;13.300;2022-08-21T10:42:08;24.30;99.20
18797;DHT22;9526;52.612;13.300;2022-08-21T10:44:52;24.60;99.90
18797;DHT22;9526;52.612;13.300;2022-08-21T10:47:30;24.80;99.90
18797;DHT22;9526;52.612;13.300;2022-08-21T10:50:05;24.70;99.50
18797;DHT22;9526;52.612;13.300;2022-08-21T10:52:45;24.70;99.40
18797;DHT22;9526;52.612;13.300;2022-08-21T10:55:17;24.60;99.90
18797;DHT22;9526;52.612;13.300;2022-08-21T10:57:46;24.70;99.10
18797;DHT22;9526;52.612;13.300;2022-08-21T11:00:15;25.00;99.90
18797;DHT22;9526;52.612;13.300;2022-08-21T11:02:46;25.10;99.90
18797;DHT22;9526;52.612;13.300;2022-08-21T11:05:25;25.40;99.90
18797;DHT22;9526;52.612;13.300;2022-08-21T11:07:55;25.40;96.80
18797;DHT22;9526;52.612;13.300;2022-08-21T11:10:25;25.50;99.30
18797;DHT22;9526;52.612;13.300;2022-08-21T11:12:54;25.60;99.90
18797;DHT22;9526;52.612;13.300;2022-08-21T11:15:31;25.70;97.30
18797;DHT22;9526;52.612;13.300;2022-08-21T11:18:08;26.10;97.30
18797;DHT22;9526;52.612;13.300;2022-08-21T11:20:41;26.10;94.70
18797;DHT22;9526;52.612;13.300;2022-08-21T11:23:13;26.50;99.00
18797;DHT22;9526;52.612;13.300;2022-08-21T11:25:42;26.90;97.80
18797;DHT22;9526;52.612;13.300;2022-08-21T11:28:13;26.80;93.40
18797;DHT22;9526;52.612;13.300;2022-08-21T11:30:47;26.70;93.40
18797;DHT22;9526;52.612;13.300;2022-08-21T11:33:32;26.90;94.40
18797;DHT22;9526;52.612;13.300;2022-08-21T11:36:15;27.10;94.80
18797;DHT22;9526;52.612;13.300;2022-08-21T11:38:44;27.30;96.90
18797;DHT22;9526;52.612;13.300;2022-08-21T11:41:21;27.20;84.80
18797;DHT22;9526;52.612;13.300;2022-08-21T11:43:50;27.00;90.40
18797;DHT22;9526;52.612;13.300;2022-08-21T11:46:33;27.30;93.80
18797;DHT22;9526;52.612;13.300;2022-08-21T11:51:55;27.00;91.10
18797;DHT22;9526;52.612;13.300;2022-08-21T11:54:28;27.20;92.00
18797;DHT22;9526;52.612;13.300;2022-08-21T11:56:57;27.20;94.90
18797;DHT22;9526;52.612;13.300;2022-08-21T11:59:25;27.10;90.30
18797;DHT22;9526;52.612;13.300;2022-08-21T12:01:56;27.10;90.50
18797;DHT22;9526;52.612;13.300;2022-08-21T12:04:27;27.30;95.10
18797;DHT22;9526;52.612;13.300;2022-08-21T12:06:53;27.10;90.00
18797;DHT22;9526;52.612;13.300;2022-08-21T12:09:32;27.10;89.90
18797;DHT22;9526;52.612;13.300;2022-08-21T12:12:05;27.20;90.90
18797;DHT22;9526;52.612;13.300;2022-08-21T12:14:39;26.90;83.90
18797;DHT22;9526;52.612;13.300;2022-08-21T12:17:06;27.20;92.40
18797;DHT22;9526;52.612;13.300;2022-08-21T12:19:36;27.40;88.40
18797;DHT22;9526;52.612;13.300;2022-08-21T12:22:09;27.60;90.90
18797;DHT22;9526;52.612;13.300;2022-08-21T12:24:37;27.70;87.50
18797;DHT22;9526;52.612;13.300;2022-08-21T12:27:18;27.10;87.50
18797;DHT22;9526;52.612;13.300;2022-08-21T12:29:49;27.60;91.70
18797;DHT22;9526;52.612;13.300;2022-08-21T12:32:26;27.60;92.20
18797;DHT22;9526;52.612;13.300;2022-08-21T12:35:02;27.50;90.20
18797;DHT22;9526;52.612;13.300;2022-08-21T12:37:48;27.60;91.10
18797;DHT22;9526;52.612;13.300;2022-08-21T12:40:21;27.60;87.10
18797;DHT22;9526;52.612;13.300;2022-08-21T12:42:49;27.70;89.00
18797;DHT22;9526;52.612;13.300;2022-08-21T12:45:28;27.80;89.30
18797;DHT22;9526;52.612;13.300;2022-08-21T12:47:57;28.00;86.30
18797;DHT22;9526;52.612;13.300;2022-08-21T12:50:35;27.40;84.90
18797;DHT22;9526;52.612;13.300;2022-08-21T12:53:04;27.50;88.10
18797;DHT22;9526;52.612;13.300;2022-08-21T12:55:42;27.30;82.80
18797;DHT22;9526;52.612;13.300;2022-08-21T12:58:06;27.20;85.60
18797;DHT22;9526;52.612;13.300;2022-08-21T13:00:30;27.20;83.70
18797;DHT22;9526;52.612;13.300;2022-08-21T13:02:55;27.10;85.60
18797;DHT22;9526;52.612;13.300;2022-08-21T13:05:29;27.40;91.00
18797;DHT22;9526;52.612;13.300;2022-08-21T13:07:54;27.50;90.60
18797;DHT22;9526;52.612;13.300;2022-08-21T13:10:21;27.90;93.70
18797;DHT22;9526;52.612;13.300;2022-08-21T13:12:46;27.80;86.70
18797;DHT22;9526;52.612;13.300;2022-08-21T13:15:11;27.60;90.40
18797;DHT22;9526;52.612;13.300;2022-08-21T13:17:38;28.10;93.00
18797;DHT22;9526;52.612;13.300;2022-08-21T13:20:06;28.30;91.50
18797;DHT22;9526;52.612;13.300;2022-08-21T13:22:39;27.80;85.90
18797;DHT22;9526;52.612;13.300;2022-08-21T13:25:09;27.60;91.30
18797;DHT22;9526;52.612;13.300;2022-08-21T13:27:34;27.50;90.30
18797;DHT22;9526;52.612;13.300;2022-08-21T13:30:05;27.40;89.00
18797;DHT22;9526;52.612;13.300;2022-08-21T13:32:31;27.20;88.00
18797;DHT22;9526;52.612;13.300;2022-08-21T13:34:57;27.20;90.50
18797;DHT22;9526;52.612;13.300;2022-08-21T13:37:23;27.10;91.50
18797;DHT22;9526;52.612;13.300;2022-08-21T13:39:51;27.10;88.40
18797;DHT22;9526;52.612;13.300;2022-08-21T13:42:15;27.00;91.20
18797;DHT22;9526;52.612;13.300;2022-08-21T13:44:41;27.10;92.40
18797;DHT22;9526;52.612;13.300;2022-08-21T13:47:07;27.50;94.20
18797;DHT22;9526;52.612;13.300;2022-08-21T13:49:35;27.50;89.60
18797;DHT22;9526;52.612;13.300;2022-08-21T13:52:01;27.20;91.30
18797;DHT22;9526;52.612;13.300;2022-08-21T13:54:29;27.00;91.40
18797;DHT22;9526;52.612;13.300;2022-08-21T13:56:58;27.00;92.30
18797;DHT22;9526;52.612;13.300;2022-08-21T13:59:29;26.70;88.00
18797;DHT22;9526;52.612;13.300;2022-08-21T14:01:57;26.50;90.40
18797;DHT22;9526;52.612;13.300;2022-08-21T14:04:24;26.50;92.50
18797;DHT22;9526;52.612;13.300;2022-08-21T14:06:50;26.50;91.30
18797;DHT22;9526;52.612;13.300;2022-08-21T14:09:25;26.50;91.30
18797;DHT22;9526;52.612;13.300;2022-08-21T14:11:53;26.60;93.30
18797;DHT22;9526;52.612;13.300;2022-08-21T14:14:23;26.40;90.80
18797;DHT22;9526;52.612;13.300;2022-08-21T14:16:54;26.20;91.50
18797;DHT22;9526;52.612;13.300;2022-08-21T14:19:22;26.30;93.10
18797;DHT22;9526;52.612;13.300;2022-08-21T14:21:46;26.60;94.40
18797;DHT22;9526;52.612;13.300;2022-08-21T14:24:12;26.70;91.00
18797;DHT22;9526;52.612;13.300;2022-08-21T14:26:46;26.60;90.80
18797;DHT22;9526;52.612;13.300;2022-08-21T14:29:16;26.60;91.20
18797;DHT22;9526;52.612;13.300;2022-08-21T14:31:51;26.40;92.60
18797;DHT22;9526;52.612;13.300;2022-08-21T14:34:16;26.50;93.20
18797;DHT22;9526;52.612;13.300;2022-08-21T14:36:41;26.40;93.30
18797;DHT22;9526;52.612;13.300;2022-08-21T14:39:04;26.40;91.90
18797;DHT22;9526;52.612;13.300;2022-08-21T14:41:29;26.40;91.60
18797;DHT22;9526;52.612;13.300;2022-08-21T14:43:53;26.20;91.50
18797;DHT22;9526;52.612;13.300;2022-08-21T14:46:30;26.10;91.90
18797;DHT22;9526;52.612;13.300;2022-08-21T14:48:57;26.00;91.50
18797;DHT22;9526;52.612;13.300;2022-08-21T14:51:21;26.10;94.20
18797;DHT22;9526;52.612;13.300;2022-08-21T14:53:45;26.10;92.50
18797;DHT22;9526;52.612;13.300;2022-08-21T14:56:09;25.80;92.20
18797;DHT22;9526;52.612;13.300;2022-08-21T14:58:34;25.70;91.20
18797;DHT22;9526;52.612;13.300;2022-08-21T15:01:00;25.80;94.00
18797;DHT22;9526;52.612;13.300;2022-08-21T15:03:26;25.80;92.90
18797;DHT22;9526;52.612;13.300;2022-08-21T15:05:51;25.80;93.90
18797;DHT22;9526;52.612;13.300;2022-08-21T15:08:15;25.70;94.00
18797;DHT22;9526;52.612;13.300;2022-08-21T15:10:39;25.60;91.70
18797;DHT22;9526;52.612;13.300;2022-08-21T15:13:23;25.40;91.20
18797;DHT22;9526;52.612;13.300;2022-08-21T15:15:49;25.60;94.50
18797;DHT22;9526;52.612;13.300;2022-08-21T15:18:14;25.60;93.30
18797;DHT22;9526;52.612;13.300;2022-08-21T15:20:38;25.50;91.30
18797;DHT22;9526;52.612;13.300;2022-08-21T15:23:05;25.50;92.20
18797;DHT22;9526;52.612;13.300;2022-08-21T15:25:35;25.50;93.30
18797;DHT22;9526;52.612;13.300;2022-08-21T15:28:00;25.50;92.40
18797;DHT22;9526;52.612;13.300;2022-08-21T15:30:25;25.40;93.90
18797;DHT22;9526;52.612;13.300;2022-08-21T15:32:49;25.40;93.20
18797;DHT22;9526;52.612;13.300;2022-08-21T15:35:13;25.30;93.90
18797;DHT22;9526;52.612;13.300;2022-08-21T15:37:37;25.30;94.30
18797;DHT22;9526;52.612;13.300;2022-08-21T15:40:04;25.40;94.10
18797;DHT22;9526;52.612;13.300;2022-08-21T15:42:29;25.50;95.10